Querétaro Intercontinental Airport
MMQT : rendu visible

Aérodrome :











RETROUVEZ-NOUS SUR...

 
LOGIN :

S'inscrire | Disclaimer

   EN    FR    IT 

 









Légende :    VFR   VFR Marginal   IFR   IFR Intensif   IFR Très Intensif
Visi : 
Plafond : 
>= 8 km
>= 3000ft
5 à 8 km
1000 à 3000 ft
1500m à 5 km
500 à 1000 ft
800 à 1500m
200 à 500 ft
< 800m
< 200 ft
Symboles :   Orages  Brouillard  Fortes neiges  Fortes précipitations  Vent > 20 kt






- Altitude de l'aérodrome : 6296 ft
- Code IATA : QRO


MMQT - Querétaro Intercontinental

DERNIER METAR :
  • 120252Z 12005KT 7SM SCT300 09/06 A3044 RMK 8/005

METARs EXPIRÉS :
  • 120147Z 10006KT 7SM BKN300 11/06 A3042 RMK 8/006
  • 120052Z 06011KT 7SM BKN300 12/06 A3029 RMK 8/006

TAF TAF MMQT
Valide du 11 à 18h jusqu'au 12 à 18h UTC


111628Z 1118/1218 10010KT 5SM HZ BKN020
FM112100 12010KT P6SM SCT020
FM120300 08010KT 4SM HZ BKN015
FM121000 00000KT 2SM BR OVC008
FM121600 12010KT 4SM HZ BKN015



MET'MAP, la Météo Aéronautique d'un coup d'oeil ! - Copyright ORBIFLY Décembre 2007 - Disclaimer

ORBIFLY MET'MAP TEAM :

Programmation & Développement : Alexandra Zaïnal
Sur une idée originale de : Baudouin d'Aumeries
Assistance à la programmation : Marc-Olivier Méhu
Soutien technique & logistique : Manuel Goepfert

Contact : metmap@orbifly.com




SOURCES & CREDITS :

   NOAA       Earth
Advisory